createdAt,value
2023-04-09T00:00:12.316Z,6.91
2023-04-09T00:02:41.117Z,6.88
2023-04-09T00:05:08.395Z,6.86
2023-04-09T00:07:36.407Z,6.83
2023-04-09T00:10:03.370Z,6.77
2023-04-09T00:12:30.447Z,6.71
2023-04-09T00:14:57.747Z,6.66
2023-04-09T00:17:24.738Z,6.63
2023-04-09T00:19:51.718Z,6.65
2023-04-09T00:22:18.537Z,6.61
2023-04-09T00:24:45.402Z,6.57
2023-04-09T00:27:12.175Z,6.57
2023-04-09T00:29:39.029Z,6.52
2023-04-09T00:32:07.043Z,6.51
2023-04-09T00:34:34.483Z,6.50
2023-04-09T00:37:01.460Z,6.45
2023-04-09T00:39:28.477Z,6.42
2023-04-09T00:41:59.760Z,6.41
2023-04-09T00:44:26.504Z,6.42
2023-04-09T00:46:54.281Z,6.41
2023-04-09T00:49:21.895Z,6.43
2023-04-09T00:51:49.348Z,6.41
2023-04-09T00:54:16.372Z,6.42
2023-04-09T00:56:43.989Z,6.44
2023-04-09T00:59:10.814Z,6.46
2023-04-09T01:01:37.801Z,6.50
2023-04-09T01:04:05.058Z,6.52
2023-04-09T01:06:45.487Z,6.51
2023-04-09T01:09:33.762Z,6.41
2023-04-09T01:12:23.822Z,6.35
2023-04-09T01:15:02.179Z,6.41
2023-04-09T01:18:02.072Z,6.30
2023-04-09T01:20:48.132Z,6.31
2023-04-09T01:23:14.955Z,6.35
2023-04-09T01:26:05.783Z,6.32
2023-04-09T01:28:47.933Z,6.29
2023-04-09T01:31:28.502Z,6.27
2023-04-09T01:33:57.049Z,6.29
2023-04-09T01:36:26.504Z,6.30
2023-04-09T01:38:54.849Z,6.29
2023-04-09T01:41:23.227Z,6.30
2023-04-09T01:43:52.274Z,6.31
2023-04-09T01:46:21.485Z,6.29
2023-04-09T01:48:49.582Z,6.30
2023-04-09T01:51:17.703Z,6.30
2023-04-09T01:53:44.559Z,6.29
2023-04-09T01:56:11.440Z,6.31
2023-04-09T01:58:38.328Z,6.33
2023-04-09T02:01:14.406Z,6.28
2023-04-09T02:03:58.621Z,6.22
2023-04-09T02:06:51.054Z,6.12
2023-04-09T02:09:19.922Z,6.17
2023-04-09T02:11:49.090Z,6.12
2023-04-09T02:14:18.694Z,6.10
2023-04-09T02:16:48.176Z,6.06
2023-04-09T02:19:14.917Z,6.05
2023-04-09T02:21:54.523Z,6.00
2023-04-09T02:24:25.342Z,5.93
2023-04-09T02:26:52.377Z,5.92
2023-04-09T02:29:19.068Z,5.88
2023-04-09T02:31:45.872Z,5.84
2023-04-09T02:34:12.662Z,5.85
2023-04-09T02:36:41.284Z,5.89
2023-04-09T02:39:08.224Z,5.92
2023-04-09T02:41:34.956Z,5.94
2023-04-09T02:44:01.768Z,5.96
2023-04-09T02:46:28.785Z,5.96
2023-04-09T02:48:55.641Z,5.96
2023-04-09T02:51:22.424Z,5.96
2023-04-09T02:53:49.356Z,6.03
2023-04-09T02:56:16.216Z,6.05
2023-04-09T02:58:43.138Z,6.03
2023-04-09T03:01:10.045Z,6.02
2023-04-09T03:03:39.150Z,6.02
2023-04-09T03:06:06.057Z,6.03
2023-04-09T03:08:32.917Z,6.06
2023-04-09T03:11:00.479Z,6.08
2023-04-09T03:13:28.612Z,6.11
2023-04-09T03:15:55.784Z,6.19
2023-04-09T03:18:22.601Z,6.17
2023-04-09T03:20:49.394Z,6.18
2023-04-09T03:23:16.572Z,6.20
2023-04-09T03:25:46.502Z,6.12
2023-04-09T03:28:17.388Z,6.07
2023-04-09T03:30:48.071Z,6.07
2023-04-09T03:33:15.438Z,6.10
2023-04-09T03:36:00.095Z,6.02
2023-04-09T03:38:47.317Z,6.00
2023-04-09T03:41:27.281Z,6.03
2023-04-09T03:43:56.103Z,6.12
2023-04-09T03:46:26.373Z,6.16
2023-04-09T03:48:53.862Z,6.18
2023-04-09T03:51:22.681Z,6.23
2023-04-09T03:53:55.225Z,6.27
2023-04-09T03:56:22.491Z,6.38
2023-04-09T03:58:49.850Z,6.43
2023-04-09T04:01:17.720Z,6.49
2023-04-09T04:03:54.186Z,6.44
2023-04-09T04:06:27.362Z,6.38
2023-04-09T04:09:17.258Z,6.35
2023-04-09T04:11:50.176Z,6.38
2023-04-09T04:14:20.934Z,6.36
2023-04-09T04:16:53.850Z,6.30
2023-04-09T04:19:25.625Z,6.32
2023-04-09T04:21:52.473Z,6.41
2023-04-09T04:24:23.647Z,6.41
2023-04-09T04:26:52.337Z,6.52
2023-04-09T04:29:21.254Z,6.58
2023-04-09T04:31:54.890Z,6.65
2023-04-09T04:34:24.286Z,6.68
2023-04-09T04:36:59.490Z,6.74
2023-04-09T04:39:31.683Z,6.81
2023-04-09T04:42:08.742Z,6.89
2023-04-09T04:44:35.843Z,6.94
2023-04-09T04:47:15.588Z,6.95
2023-04-09T04:49:42.514Z,7.02
2023-04-09T04:52:10.274Z,7.05
2023-04-09T04:54:40.492Z,7.09
2023-04-09T04:57:07.686Z,7.14
2023-04-09T04:59:40.011Z,7.22
2023-04-09T05:02:09.369Z,7.28
2023-04-09T05:04:59.374Z,7.36
2023-04-09T05:07:34.712Z,7.43
2023-04-09T05:10:01.910Z,7.54
2023-04-09T05:12:35.015Z,7.31
2023-04-09T05:15:02.351Z,7.59
2023-04-09T05:17:31.628Z,7.66
2023-04-09T05:19:59.220Z,7.71
2023-04-09T05:22:34.853Z,7.74
2023-04-09T05:25:01.786Z,7.77
2023-04-09T05:27:30.372Z,7.79
2023-04-09T05:30:01.358Z,7.85
2023-04-09T05:32:28.497Z,7.86
2023-04-09T05:34:56.476Z,7.87
2023-04-09T05:37:24.642Z,7.89
2023-04-09T05:39:52.991Z,7.89
2023-04-09T05:42:20.838Z,7.93
2023-04-09T05:44:55.817Z,7.97
2023-04-09T05:47:23.953Z,8.02
2023-04-09T05:50:16.957Z,8.07
2023-04-09T05:52:43.910Z,8.13
2023-04-09T05:55:13.486Z,8.23
2023-04-09T05:57:48.419Z,8.34
2023-04-09T06:00:15.793Z,8.35
2023-04-09T06:02:47.479Z,8.37
2023-04-09T06:05:14.403Z,8.45
2023-04-09T06:07:41.290Z,8.51
2023-04-09T06:10:08.830Z,8.63
2023-04-09T06:12:36.381Z,8.77
2023-04-09T06:15:05.493Z,8.97
2023-04-09T06:17:35.963Z,9.17
2023-04-09T06:20:02.920Z,9.25
2023-04-09T06:22:30.083Z,9.28
2023-04-09T06:24:56.916Z,9.38
2023-04-09T06:27:24.414Z,9.48
2023-04-09T06:29:51.211Z,9.53
2023-04-09T06:32:18.020Z,9.62
2023-04-09T06:34:44.905Z,9.58
2023-04-09T06:37:11.725Z,9.63
2023-04-09T06:39:40.362Z,9.78
2023-04-09T06:42:09.314Z,9.86
2023-04-09T06:45:02.718Z,9.90
2023-04-09T06:47:30.473Z,10.02
2023-04-09T06:49:57.199Z,10.04
2023-04-09T06:52:23.979Z,10.12
2023-04-09T06:54:50.741Z,10.24
2023-04-09T06:57:18.130Z,10.40
2023-04-09T06:59:44.840Z,10.49
2023-04-09T07:02:12.038Z,10.66
2023-04-09T07:04:38.903Z,10.87
2023-04-09T07:07:06.133Z,10.94
2023-04-09T07:09:32.927Z,10.98
2023-04-09T07:11:59.665Z,11.04
2023-04-09T07:14:26.486Z,11.18
2023-04-09T07:16:53.292Z,11.31
2023-04-09T07:19:20.066Z,11.40
2023-04-09T07:21:46.801Z,11.47
2023-04-09T07:24:13.551Z,11.52
2023-04-09T07:26:40.334Z,11.48
2023-04-09T07:29:07.983Z,11.14
2023-04-09T07:31:36.022Z,10.79
2023-04-09T07:34:02.947Z,10.49
2023-04-09T07:36:29.698Z,10.44
2023-04-09T07:38:56.585Z,10.45
2023-04-09T07:41:23.424Z,10.43
2023-04-09T07:43:50.179Z,10.45
2023-04-09T07:46:21.842Z,10.55
2023-04-09T07:48:50.550Z,10.61
2023-04-09T07:51:17.701Z,10.50
2023-04-09T07:53:44.453Z,10.38
2023-04-09T07:56:11.302Z,10.43
2023-04-09T07:58:38.204Z,10.63
2023-04-09T08:01:05.389Z,10.73
2023-04-09T08:03:36.524Z,10.73
2023-04-09T08:06:03.805Z,10.75
2023-04-09T08:08:31.048Z,10.75
2023-04-09T08:10:57.864Z,10.80
2023-04-09T08:13:27.906Z,10.93
2023-04-09T08:15:54.687Z,11.15
2023-04-09T08:18:21.495Z,11.32
2023-04-09T08:20:48.603Z,11.57
2023-04-09T08:23:15.532Z,11.54
2023-04-09T08:25:42.263Z,11.46
2023-04-09T08:28:09.095Z,11.61
2023-04-09T08:30:36.424Z,11.76
2023-04-09T08:33:04.183Z,11.87
2023-04-09T08:35:31.729Z,11.91
2023-04-09T08:37:59.192Z,11.98
2023-04-09T08:40:26.050Z,11.93
2023-04-09T08:42:57.126Z,11.40
2023-04-09T08:45:24.258Z,11.29
2023-04-09T08:47:52.433Z,11.11
2023-04-09T08:50:21.938Z,11.04
2023-04-09T08:52:50.411Z,10.88
2023-04-09T08:55:17.241Z,10.83
2023-04-09T08:57:44.575Z,10.78
2023-04-09T09:00:14.545Z,10.70
2023-04-09T09:03:07.533Z,10.61
2023-04-09T09:06:22.579Z,10.84
2023-04-09T09:09:11.130Z,10.70
2023-04-09T09:14:23.827Z,10.61
2023-04-09T09:16:56.913Z,10.47
2023-04-09T09:19:30.933Z,10.59
2023-04-09T09:21:59.212Z,10.58
2023-04-09T09:24:26.306Z,10.37
2023-04-09T09:26:54.535Z,10.13
2023-04-09T09:29:21.931Z,10.07
2023-04-09T09:31:52.036Z,10.22
2023-04-09T09:34:22.849Z,10.47
2023-04-09T09:36:52.393Z,10.63
2023-04-09T09:39:25.972Z,10.55
2023-04-09T09:42:08.446Z,10.56
2023-04-09T09:44:35.353Z,10.83
2023-04-09T09:47:04.842Z,11.10
2023-04-09T09:49:31.694Z,11.34
2023-04-09T09:52:02.930Z,11.26
2023-04-09T09:54:36.611Z,11.26
2023-04-09T09:57:07.624Z,11.28
2023-04-09T09:59:40.700Z,11.23
2023-04-09T10:02:18.143Z,11.12
2023-04-09T10:04:45.756Z,11.04
2023-04-09T10:07:18.273Z,11.14
2023-04-09T10:09:51.335Z,11.25
2023-04-09T10:12:22.534Z,11.37
2023-04-09T10:14:51.009Z,11.51
2023-04-09T10:17:18.516Z,11.60
2023-04-09T10:20:23.276Z,11.67
2023-04-09T10:22:52.880Z,11.77
2023-04-09T10:25:23.727Z,11.85
2023-04-09T10:28:16.542Z,11.78
2023-04-09T10:30:43.872Z,11.87
2023-04-09T10:33:16.742Z,12.28
2023-04-09T10:35:51.542Z,12.63
2023-04-09T10:38:33.157Z,12.43
2023-04-09T10:41:23.342Z,12.80
2023-04-09T10:43:50.184Z,12.87
2023-04-09T10:46:37.454Z,12.79
2023-04-09T10:49:18.945Z,12.97
2023-04-09T10:52:11.747Z,13.06
2023-04-09T10:54:44.020Z,13.19
2023-04-09T10:57:14.760Z,13.23
2023-04-09T11:00:25.823Z,13.26
2023-04-09T11:03:27.238Z,13.20
2023-04-09T11:06:06.128Z,13.01
2023-04-09T11:08:34.079Z,12.85
2023-04-09T11:11:02.093Z,12.96
2023-04-09T11:13:32.386Z,12.84
2023-04-09T11:16:01.281Z,12.73
2023-04-09T11:18:30.397Z,12.60
2023-04-09T11:21:49.869Z,12.45
2023-04-09T11:24:24.296Z,11.80
2023-04-09T11:26:51.450Z,11.56
2023-04-09T11:29:18.251Z,11.54
2023-04-09T11:31:46.336Z,11.55
2023-04-09T11:34:13.158Z,11.70
2023-04-09T11:36:40.754Z,11.58
2023-04-09T11:39:07.504Z,11.48
2023-04-09T11:41:36.010Z,11.29
2023-04-09T11:44:04.343Z,11.15
2023-04-09T11:46:35.765Z,11.18
2023-04-09T11:49:03.382Z,11.01
2023-04-09T11:51:35.484Z,10.85
2023-04-09T11:54:03.640Z,10.74
2023-04-09T11:56:35.784Z,10.67
2023-04-09T11:59:03.465Z,10.59
2023-04-09T12:01:34.564Z,10.44
2023-04-09T12:04:02.103Z,10.48
2023-04-09T12:06:29.815Z,10.31
2023-04-09T12:09:00.251Z,10.33
2023-04-09T12:11:31.790Z,10.38
2023-04-09T12:14:18.229Z,10.46
2023-04-09T12:16:45.708Z,10.48
2023-04-09T12:19:13.797Z,10.43
2023-04-09T12:21:55.576Z,10.37
2023-04-09T12:24:24.718Z,10.62
2023-04-09T12:26:53.006Z,10.85
2023-04-09T12:29:21.304Z,11.12
2023-04-09T12:31:48.247Z,11.25
2023-04-09T12:34:15.291Z,11.35
2023-04-09T12:36:42.135Z,11.47
2023-04-09T12:39:11.918Z,11.46
2023-04-09T12:41:38.641Z,11.59
2023-04-09T12:44:07.363Z,11.62
2023-04-09T12:46:34.269Z,11.68
2023-04-09T12:49:01.073Z,11.87
2023-04-09T12:51:28.683Z,12.04
2023-04-09T12:53:56.478Z,12.06
2023-04-09T12:56:23.718Z,12.05
2023-04-09T12:58:52.591Z,12.06
2023-04-09T13:01:19.561Z,11.96
2023-04-09T13:03:46.774Z,11.86
2023-04-09T13:06:13.673Z,11.77
2023-04-09T13:08:41.244Z,11.76
2023-04-09T13:11:08.038Z,11.85
2023-04-09T13:13:34.966Z,12.19
2023-04-09T13:16:02.242Z,12.60
2023-04-09T13:18:30.158Z,12.96
2023-04-09T13:20:57.059Z,13.33
2023-04-09T13:23:23.883Z,13.60
2023-04-09T13:25:50.833Z,13.80
2023-04-09T13:28:17.919Z,13.82
2023-04-09T13:30:44.765Z,13.90
2023-04-09T13:33:11.621Z,13.85
2023-04-09T13:35:38.445Z,13.60
2023-04-09T13:38:05.300Z,13.31
2023-04-09T13:40:32.417Z,13.15
2023-04-09T13:42:59.316Z,12.99
2023-04-09T13:45:33.515Z,12.79
2023-04-09T13:48:00.347Z,12.53
2023-04-09T13:50:27.161Z,12.34
2023-04-09T13:52:56.813Z,12.22
2023-04-09T13:55:26.805Z,12.24
2023-04-09T13:57:53.600Z,12.24
2023-04-09T14:00:20.904Z,12.32
2023-04-09T14:02:47.928Z,12.38
2023-04-09T14:05:14.868Z,12.29
2023-04-09T14:07:41.740Z,12.08
2023-04-09T14:10:08.958Z,11.83
2023-04-09T14:12:40.707Z,11.55
2023-04-09T14:15:08.204Z,11.31
2023-04-09T14:17:36.766Z,11.06
2023-04-09T14:20:04.145Z,10.97
2023-04-09T14:22:31.312Z,10.93
2023-04-09T14:24:59.419Z,10.90
2023-04-09T14:27:26.538Z,10.78
2023-04-09T14:29:53.747Z,10.73
2023-04-09T14:32:20.547Z,10.76
2023-04-09T14:34:47.431Z,10.87
2023-04-09T14:37:14.335Z,11.00
2023-04-09T14:39:41.058Z,11.12
2023-04-09T14:42:09.076Z,11.24
2023-04-09T14:44:39.090Z,11.42
2023-04-09T14:47:05.957Z,11.64
2023-04-09T14:49:57.983Z,11.94
2023-04-09T14:52:27.319Z,12.14
2023-04-09T14:54:55.404Z,12.18
2023-04-09T14:57:22.116Z,12.20
2023-04-09T14:59:48.877Z,12.21
2023-04-09T15:02:16.554Z,12.18
2023-04-09T15:04:43.548Z,11.99
2023-04-09T15:07:10.707Z,11.74
2023-04-09T15:09:37.561Z,11.69
2023-04-09T15:12:04.500Z,11.68
2023-04-09T15:14:31.781Z,11.77
2023-04-09T15:16:58.612Z,11.74
2023-04-09T15:19:25.383Z,11.73
2023-04-09T15:21:52.208Z,11.78
2023-04-09T15:24:18.939Z,11.93
2023-04-09T15:26:45.667Z,12.07
2023-04-09T15:29:12.340Z,12.17
2023-04-09T15:31:41.352Z,12.20
2023-04-09T15:34:08.463Z,12.04
2023-04-09T15:36:35.302Z,12.08
2023-04-09T15:39:04.433Z,12.15
2023-04-09T15:41:32.373Z,12.19
2023-04-09T15:43:59.629Z,12.17
2023-04-09T15:46:26.326Z,12.22
2023-04-09T15:48:53.197Z,12.09
2023-04-09T15:51:20.616Z,12.08
2023-04-09T15:53:47.402Z,12.10
2023-04-09T15:56:17.102Z,12.09
2023-04-09T15:58:44.295Z,11.80
2023-04-09T16:01:11.341Z,11.53
2023-04-09T16:03:41.111Z,11.36
2023-04-09T16:06:15.144Z,11.24
2023-04-09T16:08:42.259Z,11.25
2023-04-09T16:11:09.597Z,11.28
2023-04-09T16:13:37.261Z,11.17
2023-04-09T16:16:04.685Z,11.11
2023-04-09T16:18:31.422Z,11.02
2023-04-09T16:20:58.583Z,10.86
2023-04-09T16:23:29.073Z,10.86
2023-04-09T16:25:57.281Z,10.90
2023-04-09T16:28:24.071Z,10.99
2023-04-09T16:30:51.469Z,11.00
2023-04-09T16:33:18.465Z,11.00
2023-04-09T16:35:45.391Z,11.02
2023-04-09T16:38:13.532Z,10.95
2023-04-09T16:40:40.834Z,10.96
2023-04-09T16:43:07.547Z,10.90
2023-04-09T16:45:34.840Z,10.74
2023-04-09T16:48:01.727Z,10.84
2023-04-09T16:50:28.627Z,10.83
2023-04-09T16:52:55.455Z,10.77
2023-04-09T16:55:22.313Z,10.75
2023-04-09T16:57:49.149Z,10.72
2023-04-09T17:00:17.784Z,10.62
2023-04-09T17:02:46.031Z,10.65
2023-04-09T17:05:14.847Z,10.65
2023-04-09T17:07:41.622Z,10.55
2023-04-09T17:10:08.923Z,10.47
2023-04-09T17:12:35.900Z,10.40
2023-04-09T17:15:03.823Z,10.31
2023-04-09T17:17:30.970Z,10.22
2023-04-09T17:19:58.518Z,10.16
2023-04-09T17:22:25.406Z,10.11
2023-04-09T17:24:52.841Z,10.06
2023-04-09T17:27:19.852Z,9.99
2023-04-09T17:29:46.844Z,9.93
2023-04-09T17:32:21.672Z,9.88
2023-04-09T17:35:21.051Z,9.79
2023-04-09T17:38:25.094Z,9.78
2023-04-09T17:40:53.993Z,9.77
2023-04-09T17:43:20.693Z,9.80
2023-04-09T17:45:47.592Z,9.81
2023-04-09T17:48:20.567Z,9.84
2023-04-09T17:50:47.568Z,9.88
2023-04-09T17:53:14.313Z,9.89
2023-04-09T17:55:49.140Z,9.83
2023-04-09T17:58:23.682Z,9.83
2023-04-09T18:00:53.235Z,9.87
2023-04-09T18:03:22.947Z,9.89
2023-04-09T18:05:50.331Z,9.89
2023-04-09T18:08:17.777Z,9.92
2023-04-09T18:11:10.979Z,9.96
2023-04-09T18:13:43.453Z,9.98
2023-04-09T18:16:13.392Z,9.94
2023-04-09T18:18:40.402Z,9.96
2023-04-09T18:21:08.092Z,10.00
2023-04-09T18:23:36.030Z,10.04
2023-04-09T18:26:04.307Z,10.09
2023-04-09T18:28:31.728Z,10.08
2023-04-09T18:30:58.952Z,10.12
2023-04-09T18:33:28.362Z,10.12
2023-04-09T18:35:55.176Z,10.13
2023-04-09T18:38:22.781Z,10.14
2023-04-09T18:40:52.727Z,10.16
2023-04-09T18:43:19.681Z,10.12
2023-04-09T18:45:47.264Z,10.14
2023-04-09T18:48:14.005Z,10.14
2023-04-09T18:50:42.792Z,10.13
2023-04-09T18:53:11.911Z,10.12
2023-04-09T18:55:38.908Z,10.10
2023-04-09T18:58:13.581Z,10.09
2023-04-09T19:00:40.542Z,10.09
2023-04-09T19:03:08.224Z,10.09
2023-04-09T19:05:35.529Z,10.10
2023-04-09T19:08:06.936Z,10.09
2023-04-09T19:10:33.936Z,10.10
2023-04-09T19:13:01.858Z,10.10
2023-04-09T19:15:29.527Z,10.13
2023-04-09T19:17:57.487Z,10.11
2023-04-09T19:20:24.377Z,10.10
2023-04-09T19:22:57.321Z,10.08
2023-04-09T19:25:24.255Z,10.05
2023-04-09T19:27:53.658Z,10.05
2023-04-09T19:30:21.457Z,10.04
2023-04-09T19:32:49.476Z,10.03
2023-04-09T19:35:19.081Z,10.01
2023-04-09T19:37:46.880Z,9.93
2023-04-09T19:40:16.974Z,9.90
2023-04-09T19:42:44.367Z,9.88
2023-04-09T19:45:13.835Z,9.82
2023-04-09T19:47:41.498Z,9.75
2023-04-09T19:50:08.687Z,9.66
2023-04-09T19:52:35.466Z,9.56
2023-04-09T19:55:05.141Z,9.48
2023-04-09T19:57:32.039Z,9.39
2023-04-09T19:59:58.861Z,9.36
2023-04-09T20:02:28.510Z,9.34
2023-04-09T20:04:55.826Z,9.37
2023-04-09T20:07:25.428Z,9.39
2023-04-09T20:09:57.820Z,9.38
2023-04-09T20:12:29.371Z,9.38
2023-04-09T20:15:10.161Z,9.37
2023-04-09T20:17:37.295Z,9.41
2023-04-09T20:20:05.205Z,9.44
2023-04-09T20:22:38.758Z,9.47
2023-04-09T20:25:06.982Z,9.47
2023-04-09T20:27:41.100Z,9.48
2023-04-09T20:30:08.692Z,9.47
2023-04-09T20:32:37.795Z,9.47
2023-04-09T20:35:08.346Z,9.44
2023-04-09T20:37:37.413Z,9.38
2023-04-09T20:40:07.649Z,9.30
2023-04-09T20:42:34.569Z,9.24
2023-04-09T20:45:02.020Z,9.20
2023-04-09T20:47:30.448Z,9.15
2023-04-09T20:50:03.054Z,9.07
2023-04-09T20:52:33.525Z,8.97
2023-04-09T20:55:00.922Z,8.94
2023-04-09T20:57:30.083Z,8.88
2023-04-09T20:59:57.578Z,8.80
2023-04-09T21:02:27.945Z,8.75
2023-04-09T21:05:08.395Z,8.71
2023-04-09T21:07:42.031Z,8.64
2023-04-09T21:10:11.563Z,8.61
2023-04-09T21:12:40.802Z,8.59
2023-04-09T21:15:08.153Z,8.57
2023-04-09T21:17:35.101Z,8.56
2023-04-09T21:20:02.019Z,8.55
2023-04-09T21:22:34.353Z,8.53
2023-04-09T21:25:03.318Z,8.53
2023-04-09T21:27:31.557Z,8.51
2023-04-09T21:30:01.416Z,8.52
2023-04-09T21:32:31.421Z,8.52
2023-04-09T21:34:58.293Z,8.53
2023-04-09T21:37:25.334Z,8.55
2023-04-09T21:39:54.484Z,8.54
2023-04-09T21:42:24.116Z,8.52
2023-04-09T21:44:50.818Z,8.55
2023-04-09T21:47:28.453Z,8.56
2023-04-09T21:49:58.260Z,8.59
2023-04-09T21:52:26.624Z,8.61
2023-04-09T21:54:53.608Z,8.63
2023-04-09T21:57:23.198Z,8.65
2023-04-09T22:00:01.565Z,8.63
2023-04-09T22:02:50.101Z,8.63
2023-04-09T22:05:19.567Z,8.61
2023-04-09T22:07:46.411Z,8.62
2023-04-09T22:10:13.216Z,8.62
2023-04-09T22:12:40.242Z,8.61
2023-04-09T22:15:07.350Z,8.60
2023-04-09T22:17:34.229Z,8.58
2023-04-09T22:20:01.152Z,8.54
2023-04-09T22:22:28.327Z,8.50
2023-04-09T22:24:55.091Z,8.48
2023-04-09T22:27:21.889Z,8.43
2023-04-09T22:29:48.657Z,8.37
2023-04-09T22:32:15.937Z,8.29
2023-04-09T22:34:42.743Z,8.24
2023-04-09T22:37:09.560Z,8.17
2023-04-09T22:39:36.550Z,8.13
2023-04-09T22:42:03.802Z,8.10
2023-04-09T22:44:30.619Z,8.05
2023-04-09T22:46:57.448Z,8.01
2023-04-09T22:49:24.688Z,7.95
2023-04-09T22:51:51.434Z,7.93
2023-04-09T22:54:20.456Z,7.90
2023-04-09T22:56:47.274Z,7.88
2023-04-09T22:59:14.078Z,7.82
2023-04-09T23:01:41.712Z,7.79
2023-04-09T23:04:08.929Z,7.73
2023-04-09T23:06:36.053Z,7.68
2023-04-09T23:09:02.882Z,7.63
2023-04-09T23:11:30.585Z,7.59
2023-04-09T23:13:57.329Z,7.57
2023-04-09T23:16:24.098Z,7.55
2023-04-09T23:18:51.233Z,7.53
2023-04-09T23:21:18.069Z,7.50
2023-04-09T23:23:47.974Z,7.46
2023-04-09T23:26:14.673Z,7.44
2023-04-09T23:28:41.562Z,7.41
2023-04-09T23:31:08.510Z,7.37
2023-04-09T23:33:35.435Z,7.34
2023-04-09T23:36:02.235Z,7.32
2023-04-09T23:38:28.947Z,7.29
2023-04-09T23:40:55.650Z,7.27
2023-04-09T23:43:22.437Z,7.24
2023-04-09T23:45:50.675Z,7.22
2023-04-09T23:48:17.505Z,7.23
2023-04-09T23:50:44.285Z,7.19
2023-04-09T23:53:11.068Z,7.16
2023-04-09T23:55:38.547Z,7.15
2023-04-09T23:58:05.852Z,7.15
